Hanover, MN

12:35 PM CDT on May 29, 2015 (GMT -0500)
The Landings On The Crow | | Change Station
CLOSE
Current Station
Personal Weather Station
Location: St Michael, MN
Elevation: 900 ft
Nearby Weather Stations

Elev 900 ft 45.18 °N, 93.65 °W | Updated 28 seconds ago

Overcast
Overcast
67.3 °F
Feels Like 67.3 °F
N
5.4
Wind Variable Wind from WNW
Gusts 5.8 mph

Today
High -- | Low -- °F
--% Chance of Precip.
Yesterday
High -- | Low -- °F
Precip. -- in
5:32 AM 8:51 PM
Waxing Gibbous, 85% visible
Pressure 29.92 in
Visibility 2.5 miles
Clouds Scattered Clouds 1400 ft
Scattered Clouds 2200 ft
Overcast 3400 ft
Dew Point 51 °F
Humidity 56%
Rainfall 0.00 in
Snow Depth Not available.
UV 3 out of 12
Pollen .90 out of 12
Air Quality Not available.
Flu Activity Sporadic
METAR KCFE 291715Z AUTO 28004KT 2 1/2SM RA SCT014 SCT022 OVC034 19/16 A2992 RMK AO2 P0006 T01860161

More Conditions Fewer Conditions

Pressure 29.92 in
Visibility 2.5 miles
Clouds Scattered Clouds 1400 ft
Scattered Clouds 2200 ft
Overcast 3400 ft
Dew Point 51 °F
Humidity 56%
Rainfall 0.00 in
Snow Depth Not available.
UV 3 out of 12
Pollen .90 out of 12
Air Quality Not available.
Flu Activity Sporadic
METAR KCFE 291715Z AUTO 28004KT 2 1/2SM RA SCT014 SCT022 OVC034 19/16 A2992 RMK AO2 P0006 T01860161

More Conditions Fewer Conditions

10-Day Weather Forecast

Almanac

Astronomy

May. 29, 2015 Rise Set
Actual Time
Civil Twilight
Nautical Twilight
Astronomical Twilight
Moon
Length of Visible Light
Length of Day
Tomorrow will be .
, % of the Moon is Illuminated

Today's Extremes

State Highs State Lows

Community

WunderPhotos

Upload Photos

1,825,306 photos uploaded!

WunderBlogs® & News

Nearby

Air Quality

  Air Quality AQ Index Pollutant
Not available.

Snow Depth

Station Depth Elevation

Earthquake Activity

City Distance Mag. Time & Date
Minimum magnitude displayed is 2.5.

Coastal Water Temperatures

Place Temperature

Stations

Nearby Weather Stations

Station Location Temp. Windchill Dew Point Humidity Wind Precip. Elev Updated Type